createdAt,value
2022-10-20T00:00:59.368Z,4.70
2022-10-20T00:03:27.556Z,4.70
2022-10-20T00:05:54.813Z,4.22
2022-10-20T00:08:21.681Z,4.25
2022-10-20T00:10:55.597Z,4.80
2022-10-20T00:13:23.712Z,4.15
2022-10-20T00:15:54.683Z,4.05
2022-10-20T00:18:22.767Z,4.28
2022-10-20T00:20:49.695Z,3.97
2022-10-20T00:23:16.484Z,4.18
2022-10-20T00:25:43.208Z,3.50
2022-10-20T00:28:09.970Z,3.85
2022-10-20T00:30:36.967Z,4.35
2022-10-20T00:33:04.611Z,4.18
2022-10-20T00:35:32.552Z,4.05
2022-10-20T00:37:59.332Z,3.88
2022-10-20T00:40:26.503Z,4.00
2022-10-20T00:42:53.209Z,3.72
2022-10-20T00:45:21.476Z,3.92
2022-10-20T00:47:51.795Z,3.83
2022-10-20T00:50:23.968Z,3.70
2022-10-20T00:52:51.952Z,3.70
2022-10-20T00:55:28.008Z,3.38
2022-10-20T00:57:56.639Z,3.63
2022-10-20T01:00:23.977Z,3.42
2022-10-20T01:02:53.241Z,3.78
2022-10-20T01:05:20.168Z,3.25
2022-10-20T01:07:46.896Z,3.80
2022-10-20T01:10:14.413Z,3.75
2022-10-20T01:12:48.189Z,3.80
2022-10-20T01:16:07.761Z,3.45
2022-10-20T01:21:17.276Z,3.10
2022-10-20T01:24:01.236Z,3.40
2022-10-20T01:26:49.248Z,3.30
2022-10-20T01:29:56.539Z,3.40
2022-10-20T01:32:29.956Z,2.95
2022-10-20T01:34:56.650Z,3.60
2022-10-20T01:37:34.378Z,3.22
2022-10-20T01:40:26.784Z,3.47
2022-10-20T01:42:56.253Z,2.83
2022-10-20T01:45:24.463Z,2.90
2022-10-20T01:47:52.168Z,3.15
2022-10-20T01:50:20.108Z,2.90
2022-10-20T01:52:47.082Z,3.05
2022-10-20T01:55:16.471Z,3.00
2022-10-20T01:57:59.266Z,3.22
2022-10-20T02:00:26.015Z,3.00
2022-10-20T02:03:01.252Z,3.00
2022-10-20T02:05:44.807Z,2.78
2022-10-20T02:08:17.510Z,2.75
2022-10-20T02:13:22.738Z,2.83
2022-10-20T02:15:52.989Z,2.90
2022-10-20T02:18:25.887Z,3.35
2022-10-20T02:20:55.313Z,3.10
2022-10-20T02:23:22.113Z,3.13
2022-10-20T02:28:21.984Z,2.63
2022-10-20T02:30:48.880Z,2.75
2022-10-20T02:33:16.990Z,2.67
2022-10-20T02:35:51.448Z,2.35
2022-10-20T02:38:18.221Z,2.55
2022-10-20T02:40:45.124Z,2.67
2022-10-20T02:43:11.981Z,2.45
2022-10-20T02:45:38.936Z,2.75
2022-10-20T02:48:07.616Z,2.58
2022-10-20T02:50:34.880Z,2.40
2022-10-20T02:53:01.772Z,2.50
2022-10-20T02:55:28.536Z,2.20
2022-10-20T02:57:55.384Z,2.65
2022-10-20T03:00:22.423Z,2.40
2022-10-20T03:02:49.170Z,2.15
2022-10-20T03:05:16.356Z,2.28
2022-10-20T03:07:43.055Z,2.33
2022-10-20T03:10:09.780Z,2.42
2022-10-20T03:12:36.464Z,2.25
2022-10-20T03:15:03.533Z,2.33
2022-10-20T03:17:30.224Z,2.22
2022-10-20T03:19:56.930Z,2.10
2022-10-20T03:22:23.626Z,1.90
2022-10-20T03:24:50.408Z,2.35
2022-10-20T03:27:17.165Z,2.30
2022-10-20T03:29:43.954Z,2.00
2022-10-20T03:32:10.725Z,1.95
2022-10-20T03:34:37.411Z,2.38
2022-10-20T03:37:04.147Z,2.28
2022-10-20T03:39:30.892Z,1.90
2022-10-20T03:41:57.917Z,3.13
2022-10-20T03:44:25.135Z,2.00
2022-10-20T03:46:51.869Z,2.00
2022-10-20T03:49:18.640Z,1.92
2022-10-20T03:51:45.435Z,2.00
2022-10-20T03:54:12.132Z,2.10
2022-10-20T03:56:38.817Z,1.92
2022-10-20T03:59:05.580Z,1.85
2022-10-20T04:01:33.027Z,1.92
2022-10-20T04:03:59.828Z,1.80
2022-10-20T04:06:26.539Z,2.08
2022-10-20T04:08:53.368Z,2.20
2022-10-20T04:11:20.258Z,2.08
2022-10-20T04:13:47.039Z,1.80
2022-10-20T04:16:14.012Z,1.73
2022-10-20T04:18:40.837Z,2.00
2022-10-20T04:21:07.656Z,1.88
2022-10-20T04:23:34.494Z,1.88
2022-10-20T04:26:08.195Z,1.90
2022-10-20T04:28:34.888Z,1.80
2022-10-20T04:31:01.680Z,2.55
2022-10-20T04:33:28.372Z,2.80
2022-10-20T04:35:59.738Z,1.75
2022-10-20T04:38:26.644Z,1.63
2022-10-20T04:41:00.369Z,1.83
2022-10-20T04:43:30.581Z,2.00
2022-10-20T04:46:05.306Z,1.60
2022-10-20T04:48:35.075Z,1.58
2022-10-20T04:51:10.064Z,1.63
2022-10-20T04:53:37.248Z,1.80
2022-10-20T04:56:05.026Z,1.60
2022-10-20T04:58:32.193Z,1.77
2022-10-20T05:01:06.990Z,2.08
2022-10-20T05:03:34.820Z,2.22
2022-10-20T05:06:15.610Z,1.77
2022-10-20T05:08:44.157Z,1.63
2022-10-20T05:11:11.413Z,1.92
2022-10-20T05:13:38.651Z,1.90
2022-10-20T05:16:06.178Z,2.15
2022-10-20T05:18:33.393Z,1.90
2022-10-20T05:21:15.025Z,2.03
2022-10-20T05:23:42.882Z,1.83
2022-10-20T05:26:18.466Z,1.88
2022-10-20T05:28:47.875Z,1.77
2022-10-20T05:31:15.591Z,1.60
2022-10-20T05:33:50.622Z,2.03
2022-10-20T05:36:21.591Z,1.70
2022-10-20T05:38:49.044Z,1.80
2022-10-20T05:41:17.725Z,1.60
2022-10-20T05:43:48.955Z,1.77
2022-10-20T05:46:16.264Z,1.70
2022-10-20T05:48:43.272Z,1.55
2022-10-20T05:51:14.922Z,1.58
2022-10-20T05:53:43.221Z,1.70
2022-10-20T05:56:12.737Z,1.50
2022-10-20T05:58:39.676Z,1.70
2022-10-20T06:01:10.334Z,2.55
2022-10-20T06:03:37.502Z,1.90
2022-10-20T06:06:04.444Z,1.52
2022-10-20T06:08:32.318Z,1.80
2022-10-20T06:11:07.042Z,2.00
2022-10-20T06:13:34.316Z,1.67
2022-10-20T06:16:09.864Z,1.88
2022-10-20T06:18:39.880Z,3.60
2022-10-20T06:21:10.036Z,30.38
2022-10-20T06:23:36.739Z,23.75
2022-10-20T06:26:05.049Z,22.65
2022-10-20T06:28:33.501Z,20.67
2022-10-20T06:31:01.036Z,19.98
2022-10-20T06:33:30.135Z,17.45
2022-10-20T06:36:03.312Z,15.20
2022-10-20T06:40:57.028Z,12.40
2022-10-20T06:43:23.703Z,12.13
2022-10-20T06:46:05.264Z,15.98
2022-10-20T06:48:33.535Z,64.72
2022-10-20T06:51:01.952Z,60.30
2022-10-20T06:53:29.595Z,50.88
2022-10-20T06:55:57.520Z,49.53
2022-10-20T06:58:24.669Z,37.03
2022-10-20T07:01:14.707Z,30.95
2022-10-20T07:03:41.915Z,27.45
2022-10-20T07:06:10.716Z,24.98
2022-10-20T07:08:37.584Z,23.07
2022-10-20T07:11:10.681Z,22.10
2022-10-20T07:13:38.771Z,20.50
2022-10-20T07:16:06.747Z,19.05
2022-10-20T07:18:33.823Z,19.75
2022-10-20T07:21:02.799Z,18.48
2022-10-20T07:23:30.915Z,18.25
2022-10-20T07:26:05.124Z,49.75
2022-10-20T07:28:32.631Z,112.80
2022-10-20T07:31:07.023Z,92.03
2022-10-20T07:33:34.507Z,80.65
2022-10-20T07:36:01.558Z,66.97
2022-10-20T07:38:28.292Z,55.80
2022-10-20T07:41:02.686Z,49.60
2022-10-20T07:43:29.569Z,43.58
2022-10-20T07:45:56.417Z,40.28
2022-10-20T07:48:23.100Z,38.10
2022-10-20T07:50:49.810Z,37.28
2022-10-20T07:53:16.480Z,36.35
2022-10-20T07:55:43.195Z,35.17
2022-10-20T07:58:10.220Z,32.00
2022-10-20T08:00:37.028Z,29.38
2022-10-20T08:03:04.269Z,31.60
2022-10-20T08:05:31.056Z,57.30
2022-10-20T08:07:58.204Z,55.00
2022-10-20T08:10:25.164Z,47.22
2022-10-20T08:12:51.859Z,42.58
2022-10-20T08:15:18.591Z,38.50
2022-10-20T08:17:48.036Z,36.13
2022-10-20T08:22:55.564Z,31.15
2022-10-20T08:25:22.485Z,30.85
2022-10-20T08:27:49.260Z,29.67
2022-10-20T08:30:24.329Z,28.92
2022-10-20T08:35:20.927Z,27.37
2022-10-20T08:37:47.804Z,26.60
2022-10-20T08:40:20.917Z,25.35
2022-10-20T08:42:48.453Z,24.77
2022-10-20T08:45:23.387Z,24.65
2022-10-20T08:47:53.859Z,24.33
2022-10-20T08:52:55.788Z,23.30
2022-10-20T08:55:32.928Z,20.27
2022-10-20T08:58:07.889Z,20.70
2022-10-20T09:00:37.994Z,21.45
2022-10-20T09:03:17.793Z,22.23
2022-10-20T09:05:47.228Z,52.58
2022-10-20T09:08:14.069Z,50.97
2022-10-20T09:10:49.493Z,42.92
2022-10-20T09:13:25.958Z,37.90
2022-10-20T09:15:56.513Z,35.35
2022-10-20T09:21:21.403Z,27.55
2022-10-20T09:24:10.614Z,26.58
2022-10-20T09:27:00.071Z,21.25
2022-10-20T09:29:38.244Z,24.85
2022-10-20T09:32:44.982Z,23.45
2022-10-20T09:35:18.839Z,22.77
2022-10-20T09:37:53.016Z,21.13
2022-10-20T09:40:20.271Z,20.75
2022-10-20T09:42:56.333Z,22.10
2022-10-20T09:45:29.204Z,19.67
2022-10-20T09:48:04.020Z,19.95
2022-10-20T09:53:56.255Z,20.55
2022-10-20T09:56:34.103Z,18.70
2022-10-20T09:59:05.521Z,20.33
2022-10-20T10:01:32.294Z,18.98
2022-10-20T10:04:04.980Z,18.88
2022-10-20T10:06:37.705Z,18.23
2022-10-20T10:09:27.681Z,18.17
2022-10-20T10:14:58.477Z,19.33
2022-10-20T10:17:43.823Z,18.85
2022-10-20T10:20:10.521Z,17.95
2022-10-20T10:22:38.260Z,29.58
2022-10-20T10:25:06.584Z,20.50
2022-10-20T10:27:35.619Z,20.23
2022-10-20T10:30:30.059Z,24.90
2022-10-20T10:32:56.893Z,22.10
2022-10-20T10:35:40.740Z,22.67
2022-10-20T10:40:42.319Z,25.85
2022-10-20T10:43:33.711Z,20.58
2022-10-20T10:46:08.024Z,19.95
2022-10-20T10:48:45.632Z,18.35
2022-10-20T10:51:18.185Z,20.80
2022-10-20T10:54:11.820Z,21.58
2022-10-20T10:56:51.321Z,21.85
2022-10-20T10:59:18.059Z,19.52
2022-10-20T11:02:15.882Z,17.75
2022-10-20T11:05:10.455Z,16.52
2022-10-20T11:07:54.821Z,17.65
2022-10-20T11:10:35.601Z,18.70
2022-10-20T11:13:24.437Z,16.42
2022-10-20T11:16:11.188Z,18.70
2022-10-20T11:18:56.360Z,15.38
2022-10-20T11:21:33.992Z,16.25
2022-10-20T11:24:28.651Z,17.55
2022-10-20T11:27:10.355Z,15.85
2022-10-20T11:29:46.058Z,14.68
2022-10-20T11:32:21.989Z,13.90
2022-10-20T11:35:18.950Z,15.48
2022-10-20T11:37:57.121Z,14.25
2022-10-20T11:40:35.435Z,13.18
2022-10-20T11:43:18.392Z,12.60
2022-10-20T11:45:52.557Z,12.98
2022-10-20T11:48:35.111Z,12.88
2022-10-20T11:51:35.449Z,13.60
2022-10-20T11:54:20.788Z,13.10
2022-10-20T11:56:58.897Z,12.15
2022-10-20T11:59:43.643Z,11.68
2022-10-20T12:02:38.352Z,13.45
2022-10-20T12:05:45.732Z,14.40
2022-10-20T12:08:30.551Z,13.15
2022-10-20T12:11:22.864Z,11.60
2022-10-20T12:14:12.061Z,10.70
2022-10-20T12:17:03.384Z,10.70
2022-10-20T12:19:35.083Z,9.38
2022-10-20T12:22:06.385Z,10.77
2022-10-20T12:24:54.621Z,9.48
2022-10-20T12:27:23.396Z,10.32
2022-10-20T12:29:56.363Z,10.53
2022-10-20T12:32:25.406Z,9.77
2022-10-20T12:34:55.772Z,9.75
2022-10-20T12:37:28.632Z,11.65
2022-10-20T12:39:57.372Z,11.73
2022-10-20T12:42:32.231Z,10.40
2022-10-20T12:45:05.269Z,9.77
2022-10-20T12:47:34.665Z,10.02
2022-10-20T12:52:51.116Z,9.27
2022-10-20T12:55:22.022Z,9.45
2022-10-20T12:57:49.269Z,10.00
2022-10-20T13:00:22.392Z,8.45
2022-10-20T13:02:53.550Z,10.63
2022-10-20T13:05:20.244Z,10.00
2022-10-20T13:07:46.950Z,10.27
2022-10-20T13:10:29.113Z,8.52
2022-10-20T13:13:01.888Z,9.30
2022-10-20T13:15:47.510Z,9.02
2022-10-20T13:18:17.823Z,11.20
2022-10-20T13:21:03.083Z,8.85
2022-10-20T13:23:41.502Z,8.60
2022-10-20T13:26:32.293Z,8.13
2022-10-20T13:29:00.654Z,9.50
2022-10-20T13:31:47.905Z,7.80
2022-10-20T13:34:27.053Z,8.98
2022-10-20T13:37:08.281Z,7.97
2022-10-20T13:39:47.269Z,9.00
2022-10-20T13:42:29.133Z,7.53
2022-10-20T13:45:11.844Z,7.00
2022-10-20T13:47:41.483Z,9.13
2022-10-20T13:52:42.989Z,8.02
2022-10-20T13:55:17.165Z,7.38
2022-10-20T13:58:05.181Z,7.25
2022-10-20T14:00:33.247Z,7.20
2022-10-20T14:03:24.725Z,7.20
2022-10-20T14:05:54.411Z,8.35
2022-10-20T14:10:58.584Z,7.97
2022-10-20T14:13:31.576Z,8.20
2022-10-20T14:15:59.615Z,7.70
2022-10-20T14:18:29.184Z,6.85
2022-10-20T14:23:24.529Z,7.60
2022-10-20T14:25:52.303Z,7.80
2022-10-20T14:28:20.191Z,7.38
2022-10-20T14:30:50.773Z,6.65
2022-10-20T14:33:18.320Z,6.85
2022-10-20T14:38:37.907Z,6.57
2022-10-20T14:41:07.066Z,6.00
2022-10-20T14:43:39.030Z,6.68
2022-10-20T14:46:10.845Z,7.00
2022-10-20T14:48:48.417Z,6.32
2022-10-20T14:51:39.620Z,6.10
2022-10-20T14:54:20.519Z,6.15
2022-10-20T14:56:52.620Z,6.90
2022-10-20T14:59:23.183Z,7.85
2022-10-20T15:02:01.694Z,5.97
2022-10-20T15:04:32.122Z,6.53
2022-10-20T15:07:26.885Z,7.43
2022-10-20T15:10:04.174Z,6.10
2022-10-20T15:12:40.288Z,6.10
2022-10-20T15:15:13.233Z,10.32
2022-10-20T15:17:44.588Z,9.02
2022-10-20T15:20:30.347Z,6.20
2022-10-20T15:22:58.824Z,5.70
2022-10-20T15:25:27.558Z,7.45
2022-10-20T15:27:55.859Z,6.10
2022-10-20T15:30:24.686Z,6.63
2022-10-20T15:32:52.031Z,6.10
2022-10-20T15:35:22.387Z,8.88
2022-10-20T15:37:51.095Z,6.03
2022-10-20T15:40:17.964Z,5.50
2022-10-20T15:42:44.752Z,6.30
2022-10-20T15:45:22.439Z,6.18
2022-10-20T15:47:49.174Z,6.10
2022-10-20T15:50:16.325Z,5.55
2022-10-20T15:52:43.144Z,5.68
2022-10-20T15:55:24.207Z,6.72
2022-10-20T15:57:52.172Z,11.38
2022-10-20T16:00:20.282Z,6.15
2022-10-20T16:02:47.621Z,7.15
2022-10-20T16:05:14.404Z,8.50
2022-10-20T16:07:41.091Z,5.00
2022-10-20T16:12:37.854Z,5.95
2022-10-20T16:15:06.532Z,10.00
2022-10-20T16:17:33.498Z,7.70
2022-10-20T16:20:00.202Z,5.55
2022-10-20T16:22:26.895Z,8.07
2022-10-20T16:24:53.657Z,4.88
2022-10-20T16:27:20.399Z,5.18
2022-10-20T16:29:49.725Z,6.18
2022-10-20T16:34:43.361Z,5.07
2022-10-20T16:37:10.050Z,5.35
2022-10-20T16:42:03.811Z,5.25
2022-10-20T16:44:30.801Z,6.45
2022-10-20T16:46:57.999Z,4.20
2022-10-20T16:49:24.803Z,6.07
2022-10-20T16:51:51.879Z,18.60
2022-10-20T16:54:18.582Z,9.63
2022-10-20T16:56:45.708Z,11.90
2022-10-20T16:59:12.561Z,8.57
2022-10-20T17:01:39.343Z,6.22
2022-10-20T17:04:06.048Z,5.68
2022-10-20T17:06:32.783Z,5.45
2022-10-20T17:09:00.004Z,4.82
2022-10-20T17:11:29.387Z,4.25
2022-10-20T17:13:56.972Z,6.35
2022-10-20T17:16:28.631Z,4.57
2022-10-20T17:18:56.527Z,7.57
2022-10-20T17:21:23.329Z,5.18
2022-10-20T17:23:50.069Z,6.78
2022-10-20T17:26:30.164Z,6.65
2022-10-20T17:28:58.980Z,3.95
2022-10-20T17:31:25.979Z,3.67
2022-10-20T17:33:53.120Z,4.57
2022-10-20T17:36:25.773Z,5.18
2022-10-20T17:39:00.906Z,4.07
2022-10-20T17:41:28.092Z,3.65
2022-10-20T17:43:54.832Z,4.15
2022-10-20T17:46:21.713Z,7.50
2022-10-20T17:48:48.523Z,9.23
2022-10-20T17:51:23.008Z,25.73
2022-10-20T17:53:51.441Z,30.10
2022-10-20T17:56:24.505Z,25.60
2022-10-20T17:58:52.125Z,22.70
2022-10-20T18:01:33.337Z,20.35
2022-10-20T18:04:09.708Z,18.95
2022-10-20T18:06:37.021Z,16.90
2022-10-20T18:09:11.997Z,15.60
2022-10-20T18:11:40.677Z,15.02
2022-10-20T18:14:07.453Z,13.82
2022-10-20T18:16:35.387Z,12.32
2022-10-20T18:19:02.320Z,11.40
2022-10-20T18:21:29.948Z,10.35
2022-10-20T18:24:02.368Z,10.18
2022-10-20T18:26:31.556Z,8.40
2022-10-20T18:28:59.328Z,9.00
2022-10-20T18:31:30.315Z,9.45
2022-10-20T18:34:02.673Z,11.55
2022-10-20T18:36:31.118Z,73.03
2022-10-20T18:38:58.593Z,58.63
2022-10-20T18:41:38.152Z,41.65
2022-10-20T18:46:33.838Z,28.27
2022-10-20T18:49:03.434Z,25.25
2022-10-20T18:53:58.693Z,21.08
2022-10-20T18:56:27.484Z,18.63
2022-10-20T18:58:59.395Z,17.83
2022-10-20T19:01:29.461Z,16.13
2022-10-20T19:03:57.659Z,16.67
2022-10-20T19:06:26.588Z,15.68
2022-10-20T19:08:55.229Z,14.32
2022-10-20T19:11:23.854Z,13.67
2022-10-20T19:13:50.891Z,13.65
2022-10-20T19:16:20.187Z,13.23
2022-10-20T19:18:49.732Z,12.38
2022-10-20T19:23:49.999Z,11.80
2022-10-20T19:26:18.464Z,11.98
2022-10-20T19:29:00.496Z,11.15
2022-10-20T19:31:30.293Z,10.70
2022-10-20T19:34:00.412Z,10.65
2022-10-20T19:36:28.578Z,10.88
2022-10-20T19:38:55.709Z,10.50
2022-10-20T19:41:22.999Z,9.85
2022-10-20T19:43:49.845Z,9.70
2022-10-20T19:46:18.623Z,9.48
2022-10-20T19:48:46.228Z,9.23
2022-10-20T19:51:14.086Z,8.93
2022-10-20T19:53:41.084Z,10.35
2022-10-20T19:56:08.451Z,9.48
2022-10-20T19:58:37.886Z,9.27
2022-10-20T20:01:07.342Z,20.70
2022-10-20T20:03:34.425Z,80.82
2022-10-20T20:06:05.589Z,60.55
2022-10-20T20:08:32.959Z,42.75
2022-10-20T20:11:01.224Z,33.67
2022-10-20T20:13:28.312Z,29.48
2022-10-20T20:15:55.034Z,26.30
2022-10-20T20:18:21.916Z,22.65
2022-10-20T20:20:49.386Z,21.63
2022-10-20T20:23:16.452Z,19.65
2022-10-20T20:25:44.758Z,18.40
2022-10-20T20:28:11.705Z,16.77
2022-10-20T20:30:38.906Z,16.63
2022-10-20T20:33:05.711Z,16.20
2022-10-20T20:35:32.395Z,15.27
2022-10-20T20:37:59.078Z,14.18
2022-10-20T20:40:25.847Z,33.15
2022-10-20T20:42:52.701Z,38.92
2022-10-20T20:45:19.509Z,32.65
2022-10-20T20:47:47.908Z,27.75
2022-10-20T20:50:14.664Z,24.23
2022-10-20T20:52:41.463Z,21.17
2022-10-20T20:55:08.423Z,19.55
2022-10-20T20:57:35.355Z,17.63
2022-10-20T21:00:02.873Z,17.00
2022-10-20T21:02:29.684Z,15.57
2022-10-20T21:04:56.455Z,16.83
2022-10-20T21:07:23.167Z,15.18
2022-10-20T21:09:49.952Z,15.65
2022-10-20T21:12:16.656Z,14.13
2022-10-20T21:14:43.431Z,14.70
2022-10-20T21:17:10.156Z,14.00
2022-10-20T21:19:36.941Z,12.73
2022-10-20T21:22:03.893Z,13.20
2022-10-20T21:24:30.589Z,12.68
2022-10-20T21:26:57.422Z,12.10
2022-10-20T21:29:24.357Z,12.68
2022-10-20T21:31:51.075Z,12.10
2022-10-20T21:34:17.787Z,11.95
2022-10-20T21:36:44.473Z,11.88
2022-10-20T21:39:15.716Z,11.63
2022-10-20T21:41:43.660Z,11.73
2022-10-20T21:44:13.004Z,11.45
2022-10-20T21:46:47.577Z,11.05
2022-10-20T21:49:17.296Z,10.18
2022-10-20T21:51:47.968Z,10.80
2022-10-20T21:54:18.050Z,10.43
2022-10-20T21:56:46.809Z,10.82
2022-10-20T21:59:19.144Z,10.30
2022-10-20T22:01:49.682Z,10.00
2022-10-20T22:04:18.209Z,9.57
2022-10-20T22:06:44.967Z,9.20
2022-10-20T22:09:12.923Z,10.07
2022-10-20T22:11:44.755Z,9.80
2022-10-20T22:14:12.075Z,9.68
2022-10-20T22:16:41.115Z,8.90
2022-10-20T22:19:15.664Z,9.75
2022-10-20T22:21:44.787Z,9.15
2022-10-20T22:24:11.692Z,9.55
2022-10-20T22:26:38.851Z,8.90
2022-10-20T22:29:09.607Z,8.63
2022-10-20T22:31:37.720Z,14.20
2022-10-20T22:34:04.513Z,54.97
2022-10-20T22:36:31.276Z,46.28
2022-10-20T22:38:58.156Z,36.72
2022-10-20T22:41:25.042Z,29.90
2022-10-20T22:43:52.046Z,107.47
2022-10-20T22:46:19.200Z,86.82
2022-10-20T22:48:48.951Z,60.28
2022-10-20T22:51:16.128Z,47.40
2022-10-20T22:53:43.463Z,38.83
2022-10-20T22:56:18.806Z,32.95
2022-10-20T22:58:46.083Z,28.10
2022-10-20T23:01:15.451Z,27.60
2022-10-20T23:03:42.608Z,25.65
2022-10-20T23:06:14.708Z,24.85
2022-10-20T23:08:46.484Z,24.73
2022-10-20T23:11:14.147Z,23.73
2022-10-20T23:13:40.983Z,22.77
2022-10-20T23:16:08.065Z,22.50
2022-10-20T23:18:34.871Z,21.00
2022-10-20T23:21:01.718Z,21.30
2022-10-20T23:23:28.690Z,20.85
2022-10-20T23:25:56.283Z,20.33
2022-10-20T23:28:24.392Z,20.08
2022-10-20T23:30:51.158Z,18.38
2022-10-20T23:33:17.943Z,18.65
2022-10-20T23:35:47.060Z,18.63
2022-10-20T23:38:13.760Z,18.17
2022-10-20T23:40:40.458Z,17.95
2022-10-20T23:43:07.165Z,16.83
2022-10-20T23:45:36.939Z,16.83
2022-10-20T23:48:04.798Z,15.57
2022-10-20T23:50:31.608Z,16.65
2022-10-20T23:52:58.318Z,15.38
2022-10-20T23:55:25.132Z,15.43
2022-10-20T23:57:51.960Z,15.57
